Aérodrome :







RETROUVEZ-NOUS SUR...

 
LOGIN :

S'inscrire | Disclaimer

   EN    FR    IT 

 









Légende :    VFR   VFR Marginal   IFR   IFR Intensif   IFR Très Intensif
Visi : 
Plafond : 
>= 8 km
>= 3000ft
5 à 8 km
1000 à 3000 ft
1500m à 5 km
500 à 1000 ft
800 à 1500m
200 à 500 ft
< 800m
< 200 ft
Symboles :   Orages  Brouillard  Fortes neiges  Fortes précipitations  Vent > 20 kt






- Altitude de l'aérodrome : 603 ft
- Code IATA : LEB


KLEB - Lebanon Municipal

DERNIER METAR :
  • 120953Z AUTO 00000KT 4SM -FZRA BR SCT002 OVC008 00/M02 A2970 RMK AO2 FZRAB34 SLP065 P0001 I1001 T00001017

METARs EXPIRÉS :
  • 120938Z AUTO 00000KT 3SM -FZRA BR OVC001 00/M02 A2971 RMK AO2 FZRAB34 P0001 I1001 T00001017
  • 120853Z AUTO 00000KT 2SM BR OVC001 00/M02 A2973 RMK AO2 SLP074 I1001 I3001 T00001022 56040
  • 120801Z AUTO 00000KT 2 1/2SM BR OVC001 00/M02 A2975 RMK AO2 T00001022
  • 120753Z AUTO 00000KT 3SM HZ OVC001 00/M03 A2975 RMK AO2 SLP082 T00001028

TAF KLEB
Valide du 12 à 10h jusqu'au 13 à 06h UTC


121016Z 1210/1306 34004KT 4SM -FZRA OVC007
FM121400 32008G17KT P6SM -SN OVC030
FM122000 32012G22KT P6SM BKN050



MET'MAP, la Météo Aéronautique d'un coup d'oeil ! - Copyright ORBIFLY Décembre 2007 - Disclaimer

ORBIFLY MET'MAP TEAM :

Programmation & Développement : Alexandra Zaïnal
Conception & Développement : Baudouin d'Aumeries
Co-Programmation & Développement : Marc-Olivier Méhu
Soutien technique & logistique : Manuel Goepfert

Contact : metmap@orbifly.com




SOURCES & CREDITS :

   NOAA